Time,TemperatureF,DewpointF,PressureIn,WindDirection,WindDirectionDegrees,WindSpeedMPH,WindSpeedGustMPH,Humidity,HourlyPrecipIn,Conditions,Clouds,dailyrainin,SoftwareType,DateUTC
2015-01-25 00:13:00,54.0,49.0,29.98,West,279,0.0,4.0,83,0.00,,,0.03,,2015-01-25 05:13:00,
2015-01-25 00:23:00,53.0,48.0,29.98,West,276,1.0,7.0,84,0.00,,,0.03,,2015-01-25 05:23:00,
2015-01-25 00:53:00,53.0,49.0,29.98,West,277,1.0,8.0,85,0.00,,,0.03,,2015-01-25 05:53:00,
2015-01-25 01:12:00,52.0,48.0,29.99,WNW,287,2.0,9.0,85,0.00,,,0.03,,2015-01-25 06:12:00,
2015-01-25 01:23:00,52.0,48.0,29.98,West,277,1.0,9.0,85,0.00,,,0.03,,2015-01-25 06:23:00,
2015-01-25 01:42:00,52.0,48.0,29.98,West,281,1.0,9.0,86,0.00,,,0.03,,2015-01-25 06:42:00,
2015-01-25 01:53:00,51.0,47.0,29.98,WNW,282,1.0,4.0,86,0.00,,,0.03,,2015-01-25 06:53:00,
2015-01-25 02:12:00,51.0,47.0,29.99,WNW,286,0.0,5.0,87,0.00,,,0.03,,2015-01-25 07:12:00,
2015-01-25 02:23:00,51.0,48.0,29.99,WNW,287,0.0,3.0,88,0.00,,,0.03,,2015-01-25 07:23:00,
2015-01-25 02:43:00,50.0,47.0,29.99,WNW,287,0.0,3.0,88,0.00,,,0.03,,2015-01-25 07:43:00,
2015-01-25 02:52:00,50.0,47.0,29.99,WNW,287,0.0,0.0,89,0.00,,,0.03,,2015-01-25 07:52:00,
2015-01-25 03:12:00,50.0,47.0,30.00,WNW,287,0.0,0.0,89,0.00,,,0.03,,2015-01-25 08:12:00,
2015-01-25 03:22:00,49.0,46.0,30.00,WNW,287,0.0,0.0,89,0.00,,,0.03,,2015-01-25 08:22:00,
2015-01-25 03:43:00,49.0,46.0,30.00,WNW,287,0.0,0.0,90,0.00,,,0.03,,2015-01-25 08:43:00,
2015-01-25 03:52:00,48.0,45.0,30.00,WNW,287,0.0,0.0,90,0.00,,,0.03,,2015-01-25 08:52:00,
2015-01-25 04:12:00,48.0,45.0,30.00,WNW,287,0.0,0.0,91,0.00,,,0.03,,2015-01-25 09:12:00,
2015-01-25 04:22:00,48.0,45.0,30.00,WNW,287,0.0,1.0,91,0.00,,,0.03,,2015-01-25 09:22:00,
2015-01-25 04:54:00,47.0,45.0,30.00,WNW,287,0.0,0.0,91,0.00,,,0.03,,2015-01-25 09:54:00,
2015-01-25 05:23:00,47.0,45.0,30.01,WNW,287,0.0,2.0,92,0.00,,,0.03,,2015-01-25 10:23:00,
2015-01-25 05:44:00,47.0,45.0,30.01,WNW,287,0.0,0.0,92,0.00,,,0.03,,2015-01-25 10:44:00,
2015-01-25 05:54:00,47.0,45.0,30.01,WNW,287,0.0,3.0,92,0.00,,,0.03,,2015-01-25 10:54:00,
2015-01-25 06:13:00,47.0,45.0,30.02,WNW,287,0.0,0.0,92,0.00,,,0.03,,2015-01-25 11:13:00,
2015-01-25 06:23:00,46.0,44.0,30.02,WNW,287,0.0,0.0,92,0.00,,,0.03,,2015-01-25 11:23:00,
2015-01-25 06:43:00,46.0,44.0,30.02,WNW,287,0.0,0.0,92,0.00,,,0.03,,2015-01-25 11:43:00,
2015-01-25 06:52:00,46.0,44.0,30.03,WNW,287,0.0,0.0,92,0.00,,,0.03,,2015-01-25 11:52:00,
2015-01-25 07:12:00,46.0,44.0,30.04,WNW,287,0.0,1.0,92,0.00,,,0.03,,2015-01-25 12:12:00,
2015-01-25 07:22:00,46.0,44.0,30.04,WNW,287,0.0,3.0,92,0.00,,,0.03,,2015-01-25 12:22:00,
2015-01-25 07:53:00,46.0,44.0,30.05,WNW,287,0.0,5.0,91,0.00,,,0.03,,2015-01-25 12:53:00,
2015-01-25 08:22:00,47.0,44.0,30.07,WNW,287,1.0,6.0,89,0.00,,,0.03,,2015-01-25 13:22:00,
2015-01-25 08:42:00,48.0,44.0,30.07,WNW,287,3.0,8.0,87,0.00,,,0.03,,2015-01-25 13:42:00,
2015-01-25 08:53:00,49.0,44.0,30.06,WNW,288,1.0,9.0,84,0.00,,,0.03,,2015-01-25 13:53:00,
2015-01-25 09:23:00,51.0,44.0,30.06,NW,310,2.0,8.0,77,0.00,,,0.03,,2015-01-25 14:23:00,
2015-01-25 09:53:00,53.0,43.0,30.07,WNW,302,4.0,9.0,70,0.00,,,0.03,,2015-01-25 14:53:00,
2015-01-25 10:13:00,54.0,44.0,30.07,NNW,333,4.0,10.0,69,0.00,,,0.03,,2015-01-25 15:13:00,
2015-01-25 10:22:00,55.0,45.0,30.07,WNW,298,2.0,8.0,68,0.00,,,0.03,,2015-01-25 15:22:00,
2015-01-25 10:44:00,56.0,46.0,30.08,WNW,299,0.0,7.0,68,0.00,,,0.03,,2015-01-25 15:44:00,
2015-01-25 10:54:00,57.0,46.0,30.07,WNW,292,3.0,7.0,66,0.00,,,0.03,,2015-01-25 15:54:00,
2015-01-25 11:24:00,58.0,45.0,30.06,NW,304,0.0,6.0,63,0.00,,,0.00,,2015-01-25 16:24:00,
2015-01-25 11:44:00,59.0,44.0,30.06,NW,304,0.0,2.0,58,0.00,,,0.00,,2015-01-25 16:44:00,
2015-01-25 11:54:00,60.0,44.0,30.06,NW,306,1.0,5.0,55,0.00,,,0.00,,2015-01-25 16:54:00,
2015-01-25 12:13:00,60.0,42.0,30.06,NW,306,0.0,5.0,52,0.00,,,0.00,,2015-01-25 17:13:00,
2015-01-25 12:22:00,62.0,44.0,30.05,NW,304,0.0,5.0,51,0.00,,,0.00,,2015-01-25 17:22:00,
2015-01-25 12:43:00,61.0,43.0,30.04,NW,317,0.0,6.0,52,0.00,,,0.00,,2015-01-25 17:43:00,
2015-01-25 12:53:00,63.0,41.0,30.03,NW,317,0.0,1.0,45,0.00,,,0.00,,2015-01-25 17:53:00,
2015-01-25 13:13:00,64.0,40.0,30.02,NW,317,0.0,5.0,42,0.00,,,0.00,,2015-01-25 18:13:00,
2015-01-25 13:23:00,63.0,37.0,30.01,NW,309,0.0,5.0,38,0.00,,,0.00,,2015-01-25 18:23:00,
2015-01-25 13:43:00,62.0,39.0,30.01,NW,313,1.0,5.0,43,0.00,,,0.00,,2015-01-25 18:43:00,
2015-01-25 13:54:00,63.0,41.0,29.99,NW,320,0.0,8.0,44,0.00,,,0.00,,2015-01-25 18:54:00,
2015-01-25 14:13:00,65.0,37.0,29.98,NW,315,0.0,4.0,36,0.00,,,0.00,,2015-01-25 19:13:00,
2015-01-25 14:23:00,66.0,38.0,29.98,NW,315,0.0,4.0,35,0.00,,,0.00,,2015-01-25 19:23:00,
2015-01-25 14:42:00,65.0,37.0,29.97,NW,308,0.0,1.0,35,0.00,,,0.00,,2015-01-25 19:42:00,
2015-01-25 14:53:00,66.0,38.0,29.97,NW,306,0.0,7.0,36,0.00,,,0.00,,2015-01-25 19:53:00,